sensor_id;sensor_type;location;lat;lon;timestamp;temperature;humidity
5086;DHT22;4715;51.660;7.082;2023-08-12T00:00:00;22.40;99.90
5086;DHT22;4715;51.660;7.082;2023-08-12T00:02:29;22.40;99.90
5086;DHT22;4715;51.660;7.082;2023-08-12T00:04:51;22.40;99.90
5086;DHT22;4715;51.660;7.082;2023-08-12T00:07:13;22.40;99.90
5086;DHT22;4715;51.660;7.082;2023-08-12T00:09:36;22.40;99.90
5086;DHT22;4715;51.660;7.082;2023-08-12T00:11:58;22.40;99.90
5086;DHT22;4715;51.660;7.082;2023-08-12T00:14:20;22.40;99.90
5086;DHT22;4715;51.660;7.082;2023-08-12T00:16:41;22.40;99.90
5086;DHT22;4715;51.660;7.082;2023-08-12T00:19:03;22.40;99.90
5086;DHT22;4715;51.660;7.082;2023-08-12T00:21:25;22.30;99.90
5086;DHT22;4715;51.660;7.082;2023-08-12T00:23:47;22.30;99.90
5086;DHT22;4715;51.660;7.082;2023-08-12T00:26:11;22.20;99.90
5086;DHT22;4715;51.660;7.082;2023-08-12T00:28:33;22.20;99.90
5086;DHT22;4715;51.660;7.082;2023-08-12T00:30:55;22.20;99.90
5086;DHT22;4715;51.660;7.082;2023-08-12T00:33:17;22.20;99.90
5086;DHT22;4715;51.660;7.082;2023-08-12T00:35:39;22.20;99.90
5086;DHT22;4715;51.660;7.082;2023-08-12T00:38:01;22.20;99.90
5086;DHT22;4715;51.660;7.082;2023-08-12T00:40:23;22.20;99.90
5086;DHT22;4715;51.660;7.082;2023-08-12T00:42:47;22.30;99.90
5086;DHT22;4715;51.660;7.082;2023-08-12T00:45:10;22.30;99.90
5086;DHT22;4715;51.660;7.082;2023-08-12T00:47:33;22.30;99.90
5086;DHT22;4715;51.660;7.082;2023-08-12T00:49:55;22.20;99.90
5086;DHT22;4715;51.660;7.082;2023-08-12T00:52:18;22.20;99.90
5086;DHT22;4715;51.660;7.082;2023-08-12T00:54:40;22.10;99.90
5086;DHT22;4715;51.660;7.082;2023-08-12T00:57:02;22.10;99.90
5086;DHT22;4715;51.660;7.082;2023-08-12T00:59:26;22.00;99.90
5086;DHT22;4715;51.660;7.082;2023-08-12T01:01:48;22.00;99.90
5086;DHT22;4715;51.660;7.082;2023-08-12T01:04:10;22.10;99.90
5086;DHT22;4715;51.660;7.082;2023-08-12T01:06:32;22.10;99.90
5086;DHT22;4715;51.660;7.082;2023-08-12T01:08:54;22.00;99.90
5086;DHT22;4715;51.660;7.082;2023-08-12T01:11:21;22.00;99.90
5086;DHT22;4715;51.660;7.082;2023-08-12T01:13:52;22.00;99.90
5086;DHT22;4715;51.660;7.082;2023-08-12T01:16:19;21.90;99.90
5086;DHT22;4715;51.660;7.082;2023-08-12T01:18:42;21.80;99.90
5086;DHT22;4715;51.660;7.082;2023-08-12T01:21:06;21.80;99.90
5086;DHT22;4715;51.660;7.082;2023-08-12T01:23:31;21.70;99.90
5086;DHT22;4715;51.660;7.082;2023-08-12T01:25:53;21.70;99.90
5086;DHT22;4715;51.660;7.082;2023-08-12T01:28:15;21.60;99.90
5086;DHT22;4715;51.660;7.082;2023-08-12T01:30:42;21.60;99.90
5086;DHT22;4715;51.660;7.082;2023-08-12T01:33:27;21.50;99.90
5086;DHT22;4715;51.660;7.082;2023-08-12T01:35:53;21.50;99.90
5086;DHT22;4715;51.660;7.082;2023-08-12T01:38:17;21.50;99.90
5086;DHT22;4715;51.660;7.082;2023-08-12T01:40:41;21.40;99.90
5086;DHT22;4715;51.660;7.082;2023-08-12T01:43:04;21.50;99.90
5086;DHT22;4715;51.660;7.082;2023-08-12T01:45:29;21.50;99.90
5086;DHT22;4715;51.660;7.082;2023-08-12T01:47:52;21.50;99.90
5086;DHT22;4715;51.660;7.082;2023-08-12T01:50:14;21.60;99.90
5086;DHT22;4715;51.660;7.082;2023-08-12T01:52:36;21.60;99.90
5086;DHT22;4715;51.660;7.082;2023-08-12T01:54:58;21.60;99.90
5086;DHT22;4715;51.660;7.082;2023-08-12T01:57:21;21.60;99.90
5086;DHT22;4715;51.660;7.082;2023-08-12T01:59:43;21.70;99.90
5086;DHT22;4715;51.660;7.082;2023-08-12T02:02:05;21.70;99.90
5086;DHT22;4715;51.660;7.082;2023-08-12T02:04:27;21.70;99.90
5086;DHT22;4715;51.660;7.082;2023-08-12T02:06:49;21.70;99.90
5086;DHT22;4715;51.660;7.082;2023-08-12T02:09:11;21.70;99.90
5086;DHT22;4715;51.660;7.082;2023-08-12T02:11:32;21.70;99.90
5086;DHT22;4715;51.660;7.082;2023-08-12T02:13:56;21.80;99.90
5086;DHT22;4715;51.660;7.082;2023-08-12T02:16:17;21.70;99.90
5086;DHT22;4715;51.660;7.082;2023-08-12T02:18:39;21.70;99.90
5086;DHT22;4715;51.660;7.082;2023-08-12T02:21:01;21.80;99.90
5086;DHT22;4715;51.660;7.082;2023-08-12T02:23:23;21.70;99.90
5086;DHT22;4715;51.660;7.082;2023-08-12T02:25:44;21.80;99.90
5086;DHT22;4715;51.660;7.082;2023-08-12T02:28:06;21.70;99.90
5086;DHT22;4715;51.660;7.082;2023-08-12T02:30:30;21.80;99.90
5086;DHT22;4715;51.660;7.082;2023-08-12T02:32:52;21.80;99.90
5086;DHT22;4715;51.660;7.082;2023-08-12T02:35:14;21.70;99.90
5086;DHT22;4715;51.660;7.082;2023-08-12T02:37:36;21.80;99.90
5086;DHT22;4715;51.660;7.082;2023-08-12T02:39:57;21.70;99.90
5086;DHT22;4715;51.660;7.082;2023-08-12T02:42:19;21.70;99.90
5086;DHT22;4715;51.660;7.082;2023-08-12T02:44:41;21.80;99.90
5086;DHT22;4715;51.660;7.082;2023-08-12T02:47:04;21.70;99.90
5086;DHT22;4715;51.660;7.082;2023-08-12T02:49:26;21.70;99.90
5086;DHT22;4715;51.660;7.082;2023-08-12T02:51:48;21.70;99.90
5086;DHT22;4715;51.660;7.082;2023-08-12T02:54:10;21.70;99.90
5086;DHT22;4715;51.660;7.082;2023-08-12T02:56:31;21.70;99.90
5086;DHT22;4715;51.660;7.082;2023-08-12T02:58:53;21.70;99.90
5086;DHT22;4715;51.660;7.082;2023-08-12T03:01:15;21.60;99.90
5086;DHT22;4715;51.660;7.082;2023-08-12T03:03:38;21.70;99.90
5086;DHT22;4715;51.660;7.082;2023-08-12T03:06:00;21.70;99.90
5086;DHT22;4715;51.660;7.082;2023-08-12T03:08:22;21.70;99.90
5086;DHT22;4715;51.660;7.082;2023-08-12T03:10:45;21.70;99.90
5086;DHT22;4715;51.660;7.082;2023-08-12T03:13:07;21.70;99.90
5086;DHT22;4715;51.660;7.082;2023-08-12T03:15:28;21.70;99.90
5086;DHT22;4715;51.660;7.082;2023-08-12T03:17:50;21.70;99.90
5086;DHT22;4715;51.660;7.082;2023-08-12T03:20:13;21.70;99.90
5086;DHT22;4715;51.660;7.082;2023-08-12T03:22:36;21.70;99.90
5086;DHT22;4715;51.660;7.082;2023-08-12T03:24:58;21.80;99.90
5086;DHT22;4715;51.660;7.082;2023-08-12T03:27:20;21.70;99.90
5086;DHT22;4715;51.660;7.082;2023-08-12T03:29:41;21.80;99.90
5086;DHT22;4715;51.660;7.082;2023-08-12T03:32:03;21.80;99.90
5086;DHT22;4715;51.660;7.082;2023-08-12T03:34:27;21.80;99.90
5086;DHT22;4715;51.660;7.082;2023-08-12T03:36:51;21.70;99.90
5086;DHT22;4715;51.660;7.082;2023-08-12T03:39:13;21.70;99.90
5086;DHT22;4715;51.660;7.082;2023-08-12T03:41:34;21.70;99.90
5086;DHT22;4715;51.660;7.082;2023-08-12T03:43:56;21.70;99.90
5086;DHT22;4715;51.660;7.082;2023-08-12T03:46:18;21.70;99.90
5086;DHT22;4715;51.660;7.082;2023-08-12T03:48:40;21.80;99.90
5086;DHT22;4715;51.660;7.082;2023-08-12T03:51:02;21.80;99.90
5086;DHT22;4715;51.660;7.082;2023-08-12T03:53:25;21.80;99.90
5086;DHT22;4715;51.660;7.082;2023-08-12T03:55:47;21.80;99.90
5086;DHT22;4715;51.660;7.082;2023-08-12T03:58:09;21.80;99.90
5086;DHT22;4715;51.660;7.082;2023-08-12T04:00:31;21.80;99.90
5086;DHT22;4715;51.660;7.082;2023-08-12T04:02:53;21.80;99.90
5086;DHT22;4715;51.660;7.082;2023-08-12T04:05:15;21.80;99.90
5086;DHT22;4715;51.660;7.082;2023-08-12T04:07:37;21.80;99.90
5086;DHT22;4715;51.660;7.082;2023-08-12T04:10:00;21.80;99.90
5086;DHT22;4715;51.660;7.082;2023-08-12T04:12:22;21.70;99.90
5086;DHT22;4715;51.660;7.082;2023-08-12T04:14:44;21.70;99.90
5086;DHT22;4715;51.660;7.082;2023-08-12T04:17:06;21.70;99.90
5086;DHT22;4715;51.660;7.082;2023-08-12T04:19:28;21.60;99.90
5086;DHT22;4715;51.660;7.082;2023-08-12T04:21:50;21.70;99.90
5086;DHT22;4715;51.660;7.082;2023-08-12T04:24:13;21.60;99.90
5086;DHT22;4715;51.660;7.082;2023-08-12T04:26:36;21.60;99.90
5086;DHT22;4715;51.660;7.082;2023-08-12T04:28:58;21.60;99.90
5086;DHT22;4715;51.660;7.082;2023-08-12T04:31:19;21.60;99.90
5086;DHT22;4715;51.660;7.082;2023-08-12T04:33:41;21.60;99.90
5086;DHT22;4715;51.660;7.082;2023-08-12T04:36:04;21.70;99.90
5086;DHT22;4715;51.660;7.082;2023-08-12T04:38:26;21.70;99.90
5086;DHT22;4715;51.660;7.082;2023-08-12T04:40:48;21.70;99.90
5086;DHT22;4715;51.660;7.082;2023-08-12T04:43:11;21.70;99.90
5086;DHT22;4715;51.660;7.082;2023-08-12T04:45:34;21.70;99.90
5086;DHT22;4715;51.660;7.082;2023-08-12T04:47:57;21.70;99.90
5086;DHT22;4715;51.660;7.082;2023-08-12T04:50:19;21.80;99.90
5086;DHT22;4715;51.660;7.082;2023-08-12T04:52:41;21.80;99.90
5086;DHT22;4715;51.660;7.082;2023-08-12T04:55:03;21.80;99.90
5086;DHT22;4715;51.660;7.082;2023-08-12T04:57:25;21.80;99.90
5086;DHT22;4715;51.660;7.082;2023-08-12T04:59:49;21.80;99.90
5086;DHT22;4715;51.660;7.082;2023-08-12T05:02:10;21.80;99.90
5086;DHT22;4715;51.660;7.082;2023-08-12T05:04:32;21.80;99.90
5086;DHT22;4715;51.660;7.082;2023-08-12T05:06:54;21.80;99.90
5086;DHT22;4715;51.660;7.082;2023-08-12T05:09:16;21.80;99.90
5086;DHT22;4715;51.660;7.082;2023-08-12T05:11:38;21.80;99.90
5086;DHT22;4715;51.660;7.082;2023-08-12T05:13:59;21.80;99.90
5086;DHT22;4715;51.660;7.082;2023-08-12T05:16:22;21.80;99.90
5086;DHT22;4715;51.660;7.082;2023-08-12T05:18:44;21.90;99.90
5086;DHT22;4715;51.660;7.082;2023-08-12T05:21:06;21.80;99.90
5086;DHT22;4715;51.660;7.082;2023-08-12T05:23:28;21.90;99.90
5086;DHT22;4715;51.660;7.082;2023-08-12T05:25:49;21.90;99.90
5086;DHT22;4715;51.660;7.082;2023-08-12T05:28:13;21.90;99.90
5086;DHT22;4715;51.660;7.082;2023-08-12T05:30:35;21.90;99.90
5086;DHT22;4715;51.660;7.082;2023-08-12T05:33:00;21.90;99.90
5086;DHT22;4715;51.660;7.082;2023-08-12T05:35:23;22.00;99.90
5086;DHT22;4715;51.660;7.082;2023-08-12T05:37:44;22.00;99.90
5086;DHT22;4715;51.660;7.082;2023-08-12T05:40:08;22.00;99.90
5086;DHT22;4715;51.660;7.082;2023-08-12T05:42:30;22.00;99.90
5086;DHT22;4715;51.660;7.082;2023-08-12T05:44:52;22.00;99.90
5086;DHT22;4715;51.660;7.082;2023-08-12T05:47:14;22.00;99.90
5086;DHT22;4715;51.660;7.082;2023-08-12T05:49:37;22.00;99.90
5086;DHT22;4715;51.660;7.082;2023-08-12T05:51:59;22.00;99.90
5086;DHT22;4715;51.660;7.082;2023-08-12T05:54:21;22.00;99.90
5086;DHT22;4715;51.660;7.082;2023-08-12T05:56:42;22.00;99.90
5086;DHT22;4715;51.660;7.082;2023-08-12T05:59:04;22.00;99.90
5086;DHT22;4715;51.660;7.082;2023-08-12T06:01:26;22.00;99.90
5086;DHT22;4715;51.660;7.082;2023-08-12T06:03:48;22.00;99.90
5086;DHT22;4715;51.660;7.082;2023-08-12T06:06:11;22.00;99.90
5086;DHT22;4715;51.660;7.082;2023-08-12T06:08:33;22.00;99.90
5086;DHT22;4715;51.660;7.082;2023-08-12T06:10:55;22.00;99.90
5086;DHT22;4715;51.660;7.082;2023-08-12T06:13:16;22.00;99.90
5086;DHT22;4715;51.660;7.082;2023-08-12T06:15:38;22.00;99.90
5086;DHT22;4715;51.660;7.082;2023-08-12T06:18:00;22.00;99.90
5086;DHT22;4715;51.660;7.082;2023-08-12T06:20:23;22.00;99.90
5086;DHT22;4715;51.660;7.082;2023-08-12T06:22:46;22.10;99.90
5086;DHT22;4715;51.660;7.082;2023-08-12T06:25:08;22.10;99.90
5086;DHT22;4715;51.660;7.082;2023-08-12T06:27:30;22.10;99.90
5086;DHT22;4715;51.660;7.082;2023-08-12T06:29:52;22.10;99.90
5086;DHT22;4715;51.660;7.082;2023-08-12T06:32:13;22.10;99.90
5086;DHT22;4715;51.660;7.082;2023-08-12T06:34:35;22.10;99.90
5086;DHT22;4715;51.660;7.082;2023-08-12T06:36:57;22.10;99.90
5086;DHT22;4715;51.660;7.082;2023-08-12T06:39:20;22.10;99.90
5086;DHT22;4715;51.660;7.082;2023-08-12T06:41:42;22.10;99.90
5086;DHT22;4715;51.660;7.082;2023-08-12T06:44:05;22.10;99.90
5086;DHT22;4715;51.660;7.082;2023-08-12T06:46:26;22.00;99.90
5086;DHT22;4715;51.660;7.082;2023-08-12T06:48:48;22.00;99.90
5086;DHT22;4715;51.660;7.082;2023-08-12T06:51:10;22.00;99.90
5086;DHT22;4715;51.660;7.082;2023-08-12T06:53:33;21.90;99.90
5086;DHT22;4715;51.660;7.082;2023-08-12T06:55:56;21.90;99.90
5086;DHT22;4715;51.660;7.082;2023-08-12T06:58:18;21.80;99.90
5086;DHT22;4715;51.660;7.082;2023-08-12T07:00:40;21.80;99.90
5086;DHT22;4715;51.660;7.082;2023-08-12T07:03:03;21.70;99.90
5086;DHT22;4715;51.660;7.082;2023-08-12T07:05:25;21.70;99.90
5086;DHT22;4715;51.660;7.082;2023-08-12T07:07:48;21.70;99.90
5086;DHT22;4715;51.660;7.082;2023-08-12T07:10:10;21.70;99.90
5086;DHT22;4715;51.660;7.082;2023-08-12T07:12:33;21.70;99.90
5086;DHT22;4715;51.660;7.082;2023-08-12T07:14:55;21.70;99.90
5086;DHT22;4715;51.660;7.082;2023-08-12T07:17:17;21.70;99.90
5086;DHT22;4715;51.660;7.082;2023-08-12T07:19:39;21.70;99.90
5086;DHT22;4715;51.660;7.082;2023-08-12T07:22:01;21.70;99.90
5086;DHT22;4715;51.660;7.082;2023-08-12T07:24:23;21.70;99.90
5086;DHT22;4715;51.660;7.082;2023-08-12T07:26:44;21.70;99.90
5086;DHT22;4715;51.660;7.082;2023-08-12T07:29:08;21.70;99.90
5086;DHT22;4715;51.660;7.082;2023-08-12T07:31:29;21.70;99.90
5086;DHT22;4715;51.660;7.082;2023-08-12T07:33:51;21.70;99.90
5086;DHT22;4715;51.660;7.082;2023-08-12T07:36:13;21.70;99.90
5086;DHT22;4715;51.660;7.082;2023-08-12T07:38:35;21.70;99.90
5086;DHT22;4715;51.660;7.082;2023-08-12T07:40:57;21.70;99.90
5086;DHT22;4715;51.660;7.082;2023-08-12T07:43:19;21.80;99.90
5086;DHT22;4715;51.660;7.082;2023-08-12T07:45:42;21.80;99.90
5086;DHT22;4715;51.660;7.082;2023-08-12T07:48:05;21.80;99.90
5086;DHT22;4715;51.660;7.082;2023-08-12T07:50:26;21.80;99.90
5086;DHT22;4715;51.660;7.082;2023-08-12T07:52:48;21.80;99.90
5086;DHT22;4715;51.660;7.082;2023-08-12T07:55:10;21.80;99.90
5086;DHT22;4715;51.660;7.082;2023-08-12T07:57:32;21.70;99.90
5086;DHT22;4715;51.660;7.082;2023-08-12T07:59:54;21.70;99.90
5086;DHT22;4715;51.660;7.082;2023-08-12T08:02:17;21.70;99.90
5086;DHT22;4715;51.660;7.082;2023-08-12T08:04:39;21.60;99.90
5086;DHT22;4715;51.660;7.082;2023-08-12T08:07:01;21.60;99.90
5086;DHT22;4715;51.660;7.082;2023-08-12T08:09:23;21.60;99.90
5086;DHT22;4715;51.660;7.082;2023-08-12T08:11:45;21.60;99.90
5086;DHT22;4715;51.660;7.082;2023-08-12T08:14:07;21.50;99.90
5086;DHT22;4715;51.660;7.082;2023-08-12T08:16:29;21.50;99.90
5086;DHT22;4715;51.660;7.082;2023-08-12T08:18:52;21.50;99.90
5086;DHT22;4715;51.660;7.082;2023-08-12T08:21:14;21.50;99.90
5086;DHT22;4715;51.660;7.082;2023-08-12T08:23:40;21.50;99.90
5086;DHT22;4715;51.660;7.082;2023-08-12T08:26:05;21.50;99.90
5086;DHT22;4715;51.660;7.082;2023-08-12T08:28:27;21.50;99.90
5086;DHT22;4715;51.660;7.082;2023-08-12T08:30:50;21.50;99.90
5086;DHT22;4715;51.660;7.082;2023-08-12T08:33:22;21.50;99.90
5086;DHT22;4715;51.660;7.082;2023-08-12T08:35:58;21.40;99.90
5086;DHT22;4715;51.660;7.082;2023-08-12T08:38:21;21.40;99.90
5086;DHT22;4715;51.660;7.082;2023-08-12T08:40:43;21.40;99.90
5086;DHT22;4715;51.660;7.082;2023-08-12T08:43:07;21.40;99.90
5086;DHT22;4715;51.660;7.082;2023-08-12T08:45:33;21.40;99.90
5086;DHT22;4715;51.660;7.082;2023-08-12T08:47:56;21.40;99.90
5086;DHT22;4715;51.660;7.082;2023-08-12T08:50:18;21.40;99.90
5086;DHT22;4715;51.660;7.082;2023-08-12T08:52:42;21.40;99.90
5086;DHT22;4715;51.660;7.082;2023-08-12T08:55:06;21.50;99.90
5086;DHT22;4715;51.660;7.082;2023-08-12T08:57:30;21.50;99.90
5086;DHT22;4715;51.660;7.082;2023-08-12T08:59:52;21.50;99.90
5086;DHT22;4715;51.660;7.082;2023-08-12T09:02:17;21.50;99.90
5086;DHT22;4715;51.660;7.082;2023-08-12T09:04:39;21.50;99.90
5086;DHT22;4715;51.660;7.082;2023-08-12T09:07:04;21.40;99.90
5086;DHT22;4715;51.660;7.082;2023-08-12T09:09:29;21.50;99.90
5086;DHT22;4715;51.660;7.082;2023-08-12T09:11:52;21.50;99.90
5086;DHT22;4715;51.660;7.082;2023-08-12T09:14:16;21.40;99.90
5086;DHT22;4715;51.660;7.082;2023-08-12T09:16:38;21.40;99.90
5086;DHT22;4715;51.660;7.082;2023-08-12T09:19:01;21.40;99.90
5086;DHT22;4715;51.660;7.082;2023-08-12T09:21:23;21.40;99.90
5086;DHT22;4715;51.660;7.082;2023-08-12T09:23:45;21.30;99.90
5086;DHT22;4715;51.660;7.082;2023-08-12T09:26:16;21.30;99.90
5086;DHT22;4715;51.660;7.082;2023-08-12T09:28:38;21.40;99.90
5086;DHT22;4715;51.660;7.082;2023-08-12T09:30:59;21.30;99.90
5086;DHT22;4715;51.660;7.082;2023-08-12T09:33:24;21.30;99.90
5086;DHT22;4715;51.660;7.082;2023-08-12T09:35:50;21.30;99.90
5086;DHT22;4715;51.660;7.082;2023-08-12T09:38:13;21.30;99.90
5086;DHT22;4715;51.660;7.082;2023-08-12T09:40:36;21.30;99.90
5086;DHT22;4715;51.660;7.082;2023-08-12T09:43:00;21.20;99.90
5086;DHT22;4715;51.660;7.082;2023-08-12T09:45:24;21.20;99.90
5086;DHT22;4715;51.660;7.082;2023-08-12T09:47:46;21.20;99.90
5086;DHT22;4715;51.660;7.082;2023-08-12T09:50:08;21.20;99.90
5086;DHT22;4715;51.660;7.082;2023-08-12T09:52:30;21.20;99.90
5086;DHT22;4715;51.660;7.082;2023-08-12T09:54:55;21.20;99.90
5086;DHT22;4715;51.660;7.082;2023-08-12T09:57:19;21.20;99.90
5086;DHT22;4715;51.660;7.082;2023-08-12T09:59:52;21.30;99.90
5086;DHT22;4715;51.660;7.082;2023-08-12T10:02:15;21.30;99.90
5086;DHT22;4715;51.660;7.082;2023-08-12T10:04:42;21.30;99.90
5086;DHT22;4715;51.660;7.082;2023-08-12T10:07:06;21.30;99.90
5086;DHT22;4715;51.660;7.082;2023-08-12T10:09:29;21.20;99.90
5086;DHT22;4715;51.660;7.082;2023-08-12T10:11:53;21.20;99.90
5086;DHT22;4715;51.660;7.082;2023-08-12T10:14:18;21.20;99.90
5086;DHT22;4715;51.660;7.082;2023-08-12T10:16:46;21.10;99.90
5086;DHT22;4715;51.660;7.082;2023-08-12T10:19:13;21.10;99.90
5086;DHT22;4715;51.660;7.082;2023-08-12T10:21:41;21.10;99.90
5086;DHT22;4715;51.660;7.082;2023-08-12T10:24:09;21.10;99.90
5086;DHT22;4715;51.660;7.082;2023-08-12T10:26:33;21.10;99.90
5086;DHT22;4715;51.660;7.082;2023-08-12T10:28:59;21.20;99.90
5086;DHT22;4715;51.660;7.082;2023-08-12T10:31:21;21.20;99.90
5086;DHT22;4715;51.660;7.082;2023-08-12T10:33:46;21.30;99.90
5086;DHT22;4715;51.660;7.082;2023-08-12T10:36:10;21.40;99.90
5086;DHT22;4715;51.660;7.082;2023-08-12T10:38:36;21.40;99.90
5086;DHT22;4715;51.660;7.082;2023-08-12T10:41:16;21.40;99.90
5086;DHT22;4715;51.660;7.082;2023-08-12T10:43:49;21.50;99.90
5086;DHT22;4715;51.660;7.082;2023-08-12T10:46:22;21.50;99.90
5086;DHT22;4715;51.660;7.082;2023-08-12T10:48:56;21.50;99.90
5086;DHT22;4715;51.660;7.082;2023-08-12T10:51:39;21.50;99.90
5086;DHT22;4715;51.660;7.082;2023-08-12T10:54:15;21.50;99.90
5086;DHT22;4715;51.660;7.082;2023-08-12T10:59:53;21.60;99.90
5086;DHT22;4715;51.660;7.082;2023-08-12T11:02:17;21.60;99.90
5086;DHT22;4715;51.660;7.082;2023-08-12T11:04:43;21.60;99.90
5086;DHT22;4715;51.660;7.082;2023-08-12T11:07:15;21.60;99.90
5086;DHT22;4715;51.660;7.082;2023-08-12T11:09:38;21.70;99.90
5086;DHT22;4715;51.660;7.082;2023-08-12T11:12:03;21.70;99.90
5086;DHT22;4715;51.660;7.082;2023-08-12T11:14:31;21.70;99.90
5086;DHT22;4715;51.660;7.082;2023-08-12T11:16:56;21.80;99.90
5086;DHT22;4715;51.660;7.082;2023-08-12T11:19:20;21.80;99.90
5086;DHT22;4715;51.660;7.082;2023-08-12T11:21:46;21.90;99.90
5086;DHT22;4715;51.660;7.082;2023-08-12T11:24:10;22.00;99.90
5086;DHT22;4715;51.660;7.082;2023-08-12T11:26:32;22.10;99.90
5086;DHT22;4715;51.660;7.082;2023-08-12T11:29:07;22.20;99.90
5086;DHT22;4715;51.660;7.082;2023-08-12T11:31:30;22.10;99.90
5086;DHT22;4715;51.660;7.082;2023-08-12T11:33:55;22.10;99.90
5086;DHT22;4715;51.660;7.082;2023-08-12T11:36:19;22.10;99.90
5086;DHT22;4715;51.660;7.082;2023-08-12T11:38:46;22.10;99.90
5086;DHT22;4715;51.660;7.082;2023-08-12T11:41:08;22.10;99.90
5086;DHT22;4715;51.660;7.082;2023-08-12T11:43:32;22.20;99.90
5086;DHT22;4715;51.660;7.082;2023-08-12T11:45:57;22.10;99.90
5086;DHT22;4715;51.660;7.082;2023-08-12T11:48:19;22.10;99.90
5086;DHT22;4715;51.660;7.082;2023-08-12T11:50:44;22.00;99.90
5086;DHT22;4715;51.660;7.082;2023-08-12T11:53:06;22.10;99.90
5086;DHT22;4715;51.660;7.082;2023-08-12T11:55:30;22.00;99.90
5086;DHT22;4715;51.660;7.082;2023-08-12T11:57:52;22.00;99.90
5086;DHT22;4715;51.660;7.082;2023-08-12T12:00:15;21.90;99.90
5086;DHT22;4715;51.660;7.082;2023-08-12T12:02:40;21.90;99.90
5086;DHT22;4715;51.660;7.082;2023-08-12T12:05:07;21.90;99.90
5086;DHT22;4715;51.660;7.082;2023-08-12T12:07:30;21.80;99.90
5086;DHT22;4715;51.660;7.082;2023-08-12T12:09:53;21.70;99.90
5086;DHT22;4715;51.660;7.082;2023-08-12T12:12:17;21.70;99.90
5086;DHT22;4715;51.660;7.082;2023-08-12T12:14:39;21.80;99.90
5086;DHT22;4715;51.660;7.082;2023-08-12T12:17:07;21.80;99.90
5086;DHT22;4715;51.660;7.082;2023-08-12T12:19:30;21.90;99.90
5086;DHT22;4715;51.660;7.082;2023-08-12T12:21:53;22.00;99.90
5086;DHT22;4715;51.660;7.082;2023-08-12T12:24:16;22.00;99.90
5086;DHT22;4715;51.660;7.082;2023-08-12T12:26:41;22.10;99.90
5086;DHT22;4715;51.660;7.082;2023-08-12T12:29:07;22.10;99.90
5086;DHT22;4715;51.660;7.082;2023-08-12T12:31:34;22.20;99.90
5086;DHT22;4715;51.660;7.082;2023-08-12T12:33:57;22.20;99.90
5086;DHT22;4715;51.660;7.082;2023-08-12T12:36:20;22.20;99.90
5086;DHT22;4715;51.660;7.082;2023-08-12T12:38:43;22.20;99.90
5086;DHT22;4715;51.660;7.082;2023-08-12T12:41:04;22.20;99.90
5086;DHT22;4715;51.660;7.082;2023-08-12T12:43:26;22.30;99.90
5086;DHT22;4715;51.660;7.082;2023-08-12T12:45:50;22.30;99.90
5086;DHT22;4715;51.660;7.082;2023-08-12T12:48:12;22.40;99.90
5086;DHT22;4715;51.660;7.082;2023-08-12T12:50:36;22.40;99.90
5086;DHT22;4715;51.660;7.082;2023-08-12T12:53:00;22.40;99.90
5086;DHT22;4715;51.660;7.082;2023-08-12T12:55:22;22.40;99.90
5086;DHT22;4715;51.660;7.082;2023-08-12T12:57:44;22.40;99.90
5086;DHT22;4715;51.660;7.082;2023-08-12T13:00:07;22.40;99.90
5086;DHT22;4715;51.660;7.082;2023-08-12T13:02:33;22.30;99.90
5086;DHT22;4715;51.660;7.082;2023-08-12T13:04:55;22.30;99.90
5086;DHT22;4715;51.660;7.082;2023-08-12T13:07:17;22.30;99.90
5086;DHT22;4715;51.660;7.082;2023-08-12T13:09:41;22.30;99.90
5086;DHT22;4715;51.660;7.082;2023-08-12T13:12:03;22.20;99.90
5086;DHT22;4715;51.660;7.082;2023-08-12T13:14:25;22.20;99.90
5086;DHT22;4715;51.660;7.082;2023-08-12T13:16:49;22.20;99.90
5086;DHT22;4715;51.660;7.082;2023-08-12T13:19:12;22.20;99.90
5086;DHT22;4715;51.660;7.082;2023-08-12T13:21:35;22.20;99.90
5086;DHT22;4715;51.660;7.082;2023-08-12T13:23:56;22.20;99.90
5086;DHT22;4715;51.660;7.082;2023-08-12T13:26:19;22.20;99.90
5086;DHT22;4715;51.660;7.082;2023-08-12T13:28:42;22.20;99.90
5086;DHT22;4715;51.660;7.082;2023-08-12T13:31:04;22.10;99.90
5086;DHT22;4715;51.660;7.082;2023-08-12T13:33:26;22.10;99.90
5086;DHT22;4715;51.660;7.082;2023-08-12T13:35:49;22.10;99.90
5086;DHT22;4715;51.660;7.082;2023-08-12T13:38:11;22.00;99.90
5086;DHT22;4715;51.660;7.082;2023-08-12T13:40:33;22.10;99.90
5086;DHT22;4715;51.660;7.082;2023-08-12T13:42:55;22.10;99.90
5086;DHT22;4715;51.660;7.082;2023-08-12T13:45:17;22.00;99.90
5086;DHT22;4715;51.660;7.082;2023-08-12T13:47:39;22.10;99.90
5086;DHT22;4715;51.660;7.082;2023-08-12T13:50:01;22.10;99.90
5086;DHT22;4715;51.660;7.082;2023-08-12T13:52:25;22.10;99.90
5086;DHT22;4715;51.660;7.082;2023-08-12T13:54:47;22.10;99.90
5086;DHT22;4715;51.660;7.082;2023-08-12T13:57:08;22.00;99.90
5086;DHT22;4715;51.660;7.082;2023-08-12T13:59:30;21.90;99.90
5086;DHT22;4715;51.660;7.082;2023-08-12T14:01:53;22.00;99.90
5086;DHT22;4715;51.660;7.082;2023-08-12T14:04:15;21.90;99.90
5086;DHT22;4715;51.660;7.082;2023-08-12T14:06:37;21.90;99.90
5086;DHT22;4715;51.660;7.082;2023-08-12T14:09:04;21.80;99.90
5086;DHT22;4715;51.660;7.082;2023-08-12T14:11:28;21.80;99.90
5086;DHT22;4715;51.660;7.082;2023-08-12T14:13:50;21.80;99.90
5086;DHT22;4715;51.660;7.082;2023-08-12T14:16:12;21.90;99.90
5086;DHT22;4715;51.660;7.082;2023-08-12T14:18:34;22.00;99.90
5086;DHT22;4715;51.660;7.082;2023-08-12T14:20:56;22.10;99.90
5086;DHT22;4715;51.660;7.082;2023-08-12T14:23:18;22.20;99.90
5086;DHT22;4715;51.660;7.082;2023-08-12T14:25:41;22.30;99.90
5086;DHT22;4715;51.660;7.082;2023-08-12T14:28:03;22.30;99.90
5086;DHT22;4715;51.660;7.082;2023-08-12T14:30:25;22.50;99.90
5086;DHT22;4715;51.660;7.082;2023-08-12T14:32:47;22.70;99.90
5086;DHT22;4715;51.660;7.082;2023-08-12T14:35:09;22.80;99.90
5086;DHT22;4715;51.660;7.082;2023-08-12T14:37:32;22.90;99.90
5086;DHT22;4715;51.660;7.082;2023-08-12T14:39:55;23.00;99.90
5086;DHT22;4715;51.660;7.082;2023-08-12T14:42:18;23.00;99.90
5086;DHT22;4715;51.660;7.082;2023-08-12T14:44:43;23.10;99.90
5086;DHT22;4715;51.660;7.082;2023-08-12T14:47:06;23.10;99.90
5086;DHT22;4715;51.660;7.082;2023-08-12T14:49:29;23.20;99.90
5086;DHT22;4715;51.660;7.082;2023-08-12T14:51:54;23.30;99.90
5086;DHT22;4715;51.660;7.082;2023-08-12T14:54:16;23.30;99.90
5086;DHT22;4715;51.660;7.082;2023-08-12T14:56:38;23.30;99.90
5086;DHT22;4715;51.660;7.082;2023-08-12T14:59:01;23.50;99.90
5086;DHT22;4715;51.660;7.082;2023-08-12T15:01:24;23.50;99.90
5086;DHT22;4715;51.660;7.082;2023-08-12T15:03:48;23.50;99.90
5086;DHT22;4715;51.660;7.082;2023-08-12T15:06:10;23.60;99.90
5086;DHT22;4715;51.660;7.082;2023-08-12T15:08:32;23.60;99.90
5086;DHT22;4715;51.660;7.082;2023-08-12T15:10:54;23.70;99.90
5086;DHT22;4715;51.660;7.082;2023-08-12T15:13:16;23.80;99.90
5086;DHT22;4715;51.660;7.082;2023-08-12T15:15:39;23.90;99.90
5086;DHT22;4715;51.660;7.082;2023-08-12T15:18:01;23.90;99.90
5086;DHT22;4715;51.660;7.082;2023-08-12T15:20:23;24.00;99.90
5086;DHT22;4715;51.660;7.082;2023-08-12T15:22:45;24.00;99.90
5086;DHT22;4715;51.660;7.082;2023-08-12T15:25:07;24.00;99.90
5086;DHT22;4715;51.660;7.082;2023-08-12T15:27:30;24.00;99.90
5086;DHT22;4715;51.660;7.082;2023-08-12T15:29:51;24.00;99.90
5086;DHT22;4715;51.660;7.082;2023-08-12T15:32:15;23.90;99.90
5086;DHT22;4715;51.660;7.082;2023-08-12T15:34:37;23.90;99.90
5086;DHT22;4715;51.660;7.082;2023-08-12T15:36:59;23.90;99.90